Time;durP1;ratioP1;P1;durP2;ratioP2;P2;SDS_P1;SDS_P2;PMS_P1;PMS_P2;Temp;Humidity;BMP_temperature;BMP_pressure;BME280_temperature;BME280_humidity;BME280_pressure;Samples;Min_cycle;Max_cycle;Signal;HPM_P1;HPM_P2
2021/10/10 00:00:49;;;;;;;99.10;53.00;;;9.00;99.90;;;;;;2087406;28;20473;-67
2021/10/10 00:01:49;;;;;;;104.82;54.35;;;8.90;99.90;;;;;;2088371;28;20040;-67
2021/10/10 00:02:50;;;;;;;108.90;54.00;;;8.90;99.90;;;;;;2086811;28;20624;-66
2021/10/10 00:03:51;;;;;;;102.72;53.53;;;8.80;99.90;;;;;;2086617;28;20041;-66
2021/10/10 00:04:51;;;;;;;99.38;53.67;;;8.80;99.90;;;;;;2076355;28;20537;-66
2021/10/10 00:05:52;;;;;;;106.10;55.30;;;8.80;99.90;;;;;;2078423;28;20526;-66
2021/10/10 00:06:53;;;;;;;92.35;49.15;;;8.80;99.90;;;;;;2079258;28;20363;-66
2021/10/10 00:07:53;;;;;;;93.07;51.95;;;8.90;99.90;;;;;;2078800;28;20359;-67
2021/10/10 00:08:54;;;;;;;99.07;51.88;;;8.90;99.90;;;;;;2079151;28;20024;-66
2021/10/10 00:09:55;;;;;;;99.95;52.20;;;8.80;99.90;;;;;;2083888;28;20063;-66
2021/10/10 00:10:55;;;;;;;91.03;51.58;;;8.80;99.90;;;;;;2087483;28;20018;-66
2021/10/10 00:11:56;;;;;;;109.80;54.92;;;8.80;99.90;;;;;;2082638;28;20601;-66
2021/10/10 00:12:58;;;;;;;102.90;52.90;;;8.80;99.90;;;;;;2081065;28;20628;-66
2021/10/10 00:13:58;;;;;;;107.75;55.88;;;8.80;99.90;;;;;;2081044;28;20045;-66
2021/10/10 00:14:59;;;;;;;102.38;54.03;;;8.80;99.90;;;;;;2076631;28;20037;-66
2021/10/10 00:16:00;;;;;;;97.93;51.80;;;8.80;99.90;;;;;;2073618;28;20026;-66
2021/10/10 00:17:01;;;;;;;93.10;51.40;;;8.80;99.90;;;;;;2081132;28;20120;-66
2021/10/10 00:18:02;;;;;;;99.50;51.15;;;8.70;99.90;;;;;;2077372;28;20044;-66
2021/10/10 00:19:03;;;;;;;96.97;50.05;;;8.70;99.90;;;;;;2081662;28;20068;-66
2021/10/10 00:20:06;;;;;;;100.65;51.67;;;8.70;99.90;;;;;;2080344;28;20017;-66
2021/10/10 00:21:07;;;;;;;106.05;51.47;;;8.60;99.90;;;;;;2081591;28;20657;-66
2021/10/10 00:22:08;;;;;;;96.72;51.25;;;8.60;99.90;;;;;;2081525;28;20021;-66
2021/10/10 00:23:08;;;;;;;109.55;55.28;;;8.60;99.90;;;;;;2080972;28;20057;-65
2021/10/10 00:24:09;;;;;;;96.63;53.38;;;8.60;99.90;;;;;;2081852;28;20022;-67
2021/10/10 00:25:11;;;;;;;105.70;55.30;;;8.60;99.90;;;;;;2076800;28;20088;-67
2021/10/10 00:26:11;;;;;;;104.25;52.45;;;8.60;99.90;;;;;;2073351;28;20022;-66
2021/10/10 00:27:12;;;;;;;101.63;52.75;;;8.60;99.90;;;;;;2093224;28;20048;-66
2021/10/10 00:28:13;;;;;;;97.00;52.13;;;8.60;99.90;;;;;;2090365;28;20029;-67
2021/10/10 00:29:16;;;;;;;101.82;51.92;;;8.60;99.90;;;;;;2081387;28;20025;-66
2021/10/10 00:30:19;;;;;;;96.00;50.63;;;8.60;99.90;;;;;;2081298;28;20097;-66
2021/10/10 00:31:20;;;;;;;96.35;52.08;;;8.60;99.90;;;;;;2081703;28;20022;-66
2021/10/10 00:32:20;;;;;;;94.07;51.10;;;8.60;99.90;;;;;;2081294;28;20472;-66
2021/10/10 00:33:21;;;;;;;106.85;52.55;;;8.50;99.90;;;;;;2077843;28;21041;-66
2021/10/10 00:34:22;;;;;;;99.75;50.15;;;8.50;99.90;;;;;;2081179;28;20032;-66
2021/10/10 00:35:22;;;;;;;107.53;50.78;;;8.50;99.90;;;;;;2081128;28;20032;-67
2021/10/10 00:36:23;;;;;;;97.47;50.35;;;8.40;99.90;;;;;;2081794;28;20516;-66
2021/10/10 00:37:25;;;;;;;110.55;55.20;;;8.40;99.90;;;;;;2080991;28;20045;-66
2021/10/10 00:38:25;;;;;;;107.28;54.58;;;8.40;99.90;;;;;;2074727;28;20048;-66
2021/10/10 00:39:26;;;;;;;109.57;54.35;;;8.40;99.90;;;;;;2074057;28;20033;-66
2021/10/10 00:40:27;;;;;;;104.65;52.90;;;8.40;99.90;;;;;;2073544;28;20026;-66
2021/10/10 00:41:28;;;;;;;106.78;53.55;;;8.40;99.90;;;;;;2081316;28;20026;-67
2021/10/10 00:42:29;;;;;;;100.93;51.88;;;8.40;99.90;;;;;;2078053;28;20414;-66
2021/10/10 00:43:29;;;;;;;118.72;55.95;;;8.40;99.90;;;;;;2080760;28;20078;-66
2021/10/10 00:44:30;;;;;;;109.07;54.70;;;8.40;99.90;;;;;;2076819;28;20088;-66
2021/10/10 00:45:32;;;;;;;102.60;52.83;;;8.40;99.90;;;;;;2073368;28;20101;-66
2021/10/10 00:46:33;;;;;;;115.07;53.20;;;8.40;99.90;;;;;;2074371;28;20108;-66
2021/10/10 00:47:36;;;;;;;102.63;50.20;;;8.40;99.90;;;;;;2073402;28;20524;-66
2021/10/10 00:48:36;;;;;;;;;;;8.40;99.90;;;;;;2095096;28;20017;-66
2021/10/10 00:49:37;;;;;;;105.05;50.45;;;8.30;99.90;;;;;;2101098;28;20418;-66
2021/10/10 00:50:37;;;;;;;103.40;50.60;;;8.30;99.90;;;;;;2089176;28;20385;-66
2021/10/10 00:51:41;;;;;;;109.60;52.50;;;8.30;99.90;;;;;;2081482;28;20029;-66
2021/10/10 00:52:44;;;;;;;96.20;49.85;;;8.30;99.90;;;;;;2081060;28;20025;-66
2021/10/10 00:53:46;;;;;;;87.93;47.28;;;8.30;99.90;;;;;;2081446;28;20104;-66
2021/10/10 00:54:48;;;;;;;88.70;47.60;;;8.30;99.90;;;;;;2081249;28;20049;-66
2021/10/10 00:55:52;;;;;;;86.45;48.00;;;8.30;99.90;;;;;;2076038;28;20033;-66
2021/10/10 00:56:56;;;;;;;103.22;51.10;;;8.30;99.90;;;;;;2077398;28;20104;-66
2021/10/10 00:57:58;;;;;;;101.78;51.70;;;8.30;99.90;;;;;;2080764;28;20025;-66
2021/10/10 00:59:00;;;;;;;;;;;8.30;99.90;;;;;;2079711;28;20120;-66
2021/10/10 01:00:05;;;;;;;109.22;52.63;;;8.30;99.90;;;;;;2076461;28;19912;-66
2021/10/10 01:01:05;;;;;;;109.72;51.03;;;8.30;99.90;;;;;;2074667;28;20037;-66
2021/10/10 01:02:06;;;;;;;106.57;52.95;;;8.30;99.90;;;;;;2073381;28;20109;-66
2021/10/10 01:03:07;;;;;;;94.80;50.72;;;8.30;99.90;;;;;;2076364;28;20049;-66
2021/10/10 01:04:08;;;;;;;97.63;49.20;;;8.30;99.90;;;;;;2081494;28;20021;-66
2021/10/10 01:05:09;;;;;;;101.32;51.03;;;8.20;99.90;;;;;;2081116;28;20101;-66
2021/10/10 01:06:10;;;;;;;94.53;50.20;;;8.20;99.90;;;;;;2080944;28;20075;-66
2021/10/10 01:07:10;;;;;;;97.20;49.30;;;8.20;99.90;;;;;;2081272;28;20084;-66
2021/10/10 01:08:15;;;;;;;94.28;48.67;;;8.10;99.90;;;;;;2075889;28;20040;-66
2021/10/10 01:09:16;;;;;;;98.32;50.17;;;8.20;99.90;;;;;;2073617;28;20029;-66
2021/10/10 01:10:18;;;;;;;86.93;48.15;;;8.20;99.90;;;;;;2080315;28;20021;-66
2021/10/10 01:11:19;;;;;;;92.22;49.25;;;8.20;99.90;;;;;;2080400;28;20028;-66
2021/10/10 01:12:20;;;;;;;98.25;51.65;;;8.20;99.90;;;;;;2080012;28;20030;-66
2021/10/10 01:13:21;;;;;;;104.75;50.75;;;8.20;99.90;;;;;;2077958;28;20022;-66
2021/10/10 01:14:23;;;;;;;99.75;49.58;;;8.20;99.90;;;;;;2073208;28;20038;-66
2021/10/10 01:15:24;;;;;;;111.30;53.22;;;8.20;99.90;;;;;;2079346;28;20041;-66
2021/10/10 01:16:24;;;;;;;97.97;50.83;;;8.20;99.90;;;;;;2079440;28;20134;-66
2021/10/10 01:17:25;;;;;;;100.78;50.03;;;8.20;99.90;;;;;;2080223;28;20072;-66
2021/10/10 01:18:26;;;;;;;95.80;49.63;;;8.10;99.90;;;;;;2079927;28;20029;-66
2021/10/10 01:19:31;;;;;;;92.28;47.78;;;8.10;99.90;;;;;;2077163;28;20596;-66
2021/10/10 01:20:59;;;;;;;88.18;46.95;;;8.10;99.90;;;;;;2079657;28;20026;-66
2021/10/10 01:22:01;;;;;;;91.05;45.75;;;8.10;99.90;;;;;;2079920;28;20038;-66
2021/10/10 01:23:01;;;;;;;82.03;43.97;;;8.00;99.90;;;;;;2081281;28;20123;-65
2021/10/10 01:24:03;;;;;;;82.45;43.97;;;8.00;99.90;;;;;;2080988;28;20080;-66
2021/10/10 01:25:04;;;;;;;;;;;8.00;99.90;;;;;;2077349;28;20021;-66
2021/10/10 01:26:05;;;;;;;92.32;46.90;;;8.00;99.90;;;;;;2080330;28;19905;-66
2021/10/10 01:27:06;;;;;;;91.18;47.05;;;8.00;99.90;;;;;;2080577;28;20628;-66
2021/10/10 01:28:07;;;;;;;94.18;47.80;;;8.00;99.90;;;;;;2081228;28;20103;-67
2021/10/10 01:29:07;;;;;;;97.43;48.67;;;8.00;99.90;;;;;;2078528;28;20049;-66
2021/10/10 01:30:08;;;;;;;104.05;50.33;;;7.90;99.90;;;;;;2072451;28;20050;-66
2021/10/10 01:31:09;;;;;;;89.78;47.05;;;7.90;99.90;;;;;;2078356;28;20041;-66
2021/10/10 01:32:10;;;;;;;85.88;45.97;;;8.00;99.90;;;;;;2080719;28;20021;-66
2021/10/10 01:33:13;;;;;;;87.70;46.00;;;8.00;99.90;;;;;;2073089;28;20026;-66
2021/10/10 01:34:13;;;;;;;88.68;47.33;;;8.00;99.90;;;;;;2075999;28;20028;-66
2021/10/10 01:35:14;;;;;;;83.20;45.30;;;8.00;99.90;;;;;;2081090;28;20056;-66
2021/10/10 01:36:15;;;;;;;93.15;48.30;;;8.00;99.90;;;;;;2079929;28;20409;-67
2021/10/10 01:37:16;;;;;;;100.95;49.38;;;8.00;99.90;;;;;;2070014;28;20509;-66
2021/10/10 01:38:19;;;;;;;89.82;47.70;;;8.00;99.90;;;;;;2077750;28;20536;-66
2021/10/10 01:39:19;;;;;;;;;;;8.00;99.90;;;;;;2078580;28;20022;-66
2021/10/10 01:40:20;;;;;;;102.32;47.95;;;8.00;99.90;;;;;;2080200;28;19905;-66
2021/10/10 01:41:21;;;;;;;101.68;47.72;;;8.00;99.90;;;;;;2065937;28;20040;-66
2021/10/10 01:42:21;;;;;;;109.60;49.08;;;8.00;99.90;;;;;;2074098;28;20034;-66
2021/10/10 01:43:22;;;;;;;104.03;49.20;;;8.10;99.90;;;;;;2081106;28;20029;-66
2021/10/10 01:44:23;;;;;;;103.13;51.15;;;8.00;99.90;;;;;;2080844;28;20504;-66
2021/10/10 01:45:24;;;;;;;101.90;49.88;;;8.10;99.90;;;;;;2080244;28;20017;-66
2021/10/10 01:46:25;;;;;;;104.10;49.85;;;8.10;99.90;;;;;;2075363;28;20022;-66
2021/10/10 01:47:26;;;;;;;113.15;52.83;;;8.10;99.90;;;;;;2080213;28;20044;-66
2021/10/10 01:48:26;;;;;;;111.25;53.30;;;8.10;99.90;;;;;;2077756;28;20026;-66
2021/10/10 01:49:27;;;;;;;118.65;53.90;;;8.10;99.90;;;;;;2076460;28;20017;-66
2021/10/10 01:50:28;;;;;;;105.20;52.38;;;8.10;99.90;;;;;;2080164;28;20026;-66
2021/10/10 01:51:29;;;;;;;105.60;51.33;;;8.20;99.90;;;;;;2081080;28;20393;-66
2021/10/10 01:52:29;;;;;;;116.13;53.45;;;8.20;99.90;;;;;;2080975;28;20034;-66
2021/10/10 01:53:30;;;;;;;129.18;59.47;;;8.20;99.90;;;;;;2074227;28;20022;-66
2021/10/10 01:54:31;;;;;;;132.18;59.80;;;8.30;99.90;;;;;;2076752;28;20688;-66
2021/10/10 01:55:32;;;;;;;139.02;61.33;;;8.30;99.90;;;;;;2080908;28;20385;-66
2021/10/10 01:56:32;;;;;;;128.65;57.72;;;8.40;99.90;;;;;;2080569;28;20099;-66
2021/10/10 01:57:33;;;;;;;129.00;61.75;;;8.40;99.90;;;;;;2077387;28;20029;-66
2021/10/10 01:58:34;;;;;;;141.45;65.63;;;8.60;99.90;;;;;;2077739;28;20108;-66
2021/10/10 01:59:35;;;;;;;145.27;64.53;;;8.80;99.90;;;;;;2076029;28;20641;-65
2021/10/10 02:00:36;;;;;;;151.25;64.05;;;8.90;99.90;;;;;;2072762;28;20109;-66
2021/10/10 02:01:36;;;;;;;172.15;71.15;;;9.00;99.90;;;;;;2075738;28;20045;-66
2021/10/10 02:02:37;;;;;;;184.48;73.85;;;9.10;99.90;;;;;;2080249;28;20055;-65
2021/10/10 02:03:38;;;;;;;191.25;73.28;;;9.30;99.90;;;;;;2078348;28;20136;-67
2021/10/10 02:04:39;;;;;;;167.90;69.53;;;9.30;99.90;;;;;;2080604;28;20022;-66
2021/10/10 02:05:39;;;;;;;159.25;69.78;;;9.30;99.90;;;;;;2072506;28;20483;-66
2021/10/10 02:06:40;;;;;;;157.88;67.10;;;9.30;99.90;;;;;;2070737;28;20099;-66
2021/10/10 02:07:41;;;;;;;171.52;71.47;;;9.40;99.90;;;;;;2072967;28;20080;-66
2021/10/10 02:08:42;;;;;;;145.32;67.68;;;9.50;99.90;;;;;;2085381;28;20488;-67
2021/10/10 02:09:43;;;;;;;174.43;70.70;;;9.70;99.90;;;;;;2080351;28;20069;-66
2021/10/10 02:10:44;;;;;;;164.30;74.28;;;9.70;99.90;;;;;;2072554;28;20038;-66
2021/10/10 02:11:45;;;;;;;166.85;72.28;;;9.80;99.90;;;;;;2072492;28;20057;-66
2021/10/10 02:12:46;;;;;;;168.95;72.85;;;9.90;99.90;;;;;;2073532;28;20033;-66
2021/10/10 02:13:46;;;;;;;149.32;68.25;;;9.90;99.90;;;;;;2081402;28;20025;-67
2021/10/10 02:14:47;;;;;;;122.60;60.80;;;9.80;99.90;;;;;;2080817;28;20029;-66
2021/10/10 02:15:48;;;;;;;145.45;65.28;;;9.80;99.90;;;;;;2080107;28;20028;-66
2021/10/10 02:16:49;;;;;;;128.20;60.67;;;9.80;99.90;;;;;;2076814;28;20025;-66
2021/10/10 02:17:50;;;;;;;128.03;57.17;;;9.70;99.90;;;;;;2076019;28;20029;-66
2021/10/10 02:18:50;;;;;;;132.02;58.60;;;9.70;99.90;;;;;;2079392;28;20787;-66
2021/10/10 02:19:52;;;;;;;128.93;58.75;;;9.60;99.90;;;;;;2077575;28;20026;-66
2021/10/10 02:20:53;;;;;;;120.28;55.00;;;9.50;99.90;;;;;;2070576;28;20078;-66
2021/10/10 02:21:53;;;;;;;126.95;57.85;;;9.40;99.90;;;;;;2077482;28;20032;-66
2021/10/10 02:22:54;;;;;;;117.07;55.17;;;9.40;99.90;;;;;;2071868;28;20013;-66
2021/10/10 02:23:55;;;;;;;126.65;55.90;;;9.40;99.90;;;;;;2075360;28;20021;-66
2021/10/10 02:24:55;;;;;;;118.95;54.25;;;9.30;99.90;;;;;;2070042;28;20029;-66
2021/10/10 02:25:57;;;;;;;113.63;53.75;;;9.30;99.90;;;;;;2078670;28;20014;-66
2021/10/10 02:26:57;;;;;;;105.40;50.92;;;9.20;99.90;;;;;;2080007;28;20022;-66
2021/10/10 02:27:58;;;;;;;110.57;51.70;;;9.20;99.90;;;;;;2072157;28;20119;-66
2021/10/10 02:28:59;;;;;;;110.63;51.63;;;9.20;99.90;;;;;;2074435;28;20052;-67
2021/10/10 02:30:00;;;;;;;111.82;51.80;;;9.10;99.90;;;;;;2080786;28;20022;-66
2021/10/10 02:31:01;;;;;;;109.80;51.22;;;9.10;99.90;;;;;;2074850;28;20026;-67
2021/10/10 02:32:01;;;;;;;111.25;52.03;;;9.10;99.90;;;;;;2072006;28;20057;-67
2021/10/10 02:33:02;;;;;;;109.13;52.67;;;9.00;99.90;;;;;;2078579;28;20017;-66
2021/10/10 02:34:03;;;;;;;123.90;50.53;;;9.00;99.90;;;;;;2073497;28;20033;-65
2021/10/10 02:35:05;;;;;;;102.53;49.17;;;9.00;99.90;;;;;;2080557;28;20024;-66
2021/10/10 02:36:05;;;;;;;133.00;53.42;;;8.90;99.90;;;;;;2079744;28;20603;-66
2021/10/10 02:37:07;;;;;;;111.85;50.50;;;8.90;99.90;;;;;;2080498;28;20018;-66
2021/10/10 02:38:08;;;;;;;115.25;52.13;;;8.90;99.90;;;;;;2080574;28;20629;-66
2021/10/10 02:39:09;;;;;;;108.72;48.83;;;8.90;99.90;;;;;;2078232;28;20026;-66
2021/10/10 02:40:11;;;;;;;115.93;51.65;;;8.90;99.90;;;;;;2079799;28;20140;-66
2021/10/10 02:41:11;;;;;;;120.88;53.08;;;8.90;99.90;;;;;;2071276;28;20121;-66
2021/10/10 02:42:12;;;;;;;107.28;49.95;;;8.80;99.90;;;;;;2077682;28;20425;-66
2021/10/10 02:43:13;;;;;;;98.53;48.17;;;8.80;99.90;;;;;;2074154;28;20088;-66
2021/10/10 02:44:14;;;;;;;110.63;50.83;;;8.80;99.90;;;;;;2073391;28;20022;-67
2021/10/10 02:45:14;;;;;;;95.53;46.55;;;8.80;99.90;;;;;;2072496;28;20049;-66
2021/10/10 02:46:15;;;;;;;112.80;51.33;;;8.80;99.90;;;;;;2074620;28;20029;-66
2021/10/10 02:47:17;;;;;;;104.93;48.38;;;8.80;99.90;;;;;;2080210;28;20148;-66
2021/10/10 02:48:17;;;;;;;103.45;48.15;;;8.80;99.90;;;;;;2080103;28;20029;-66
2021/10/10 02:49:18;;;;;;;93.05;45.28;;;8.70;99.90;;;;;;2080480;28;20017;-66
2021/10/10 02:50:19;;;;;;;92.63;44.30;;;8.70;99.90;;;;;;2077711;28;20104;-66
2021/10/10 02:51:20;;;;;;;84.63;43.90;;;8.70;99.90;;;;;;2078620;28;20025;-66
2021/10/10 02:52:21;;;;;;;83.63;43.15;;;8.70;99.90;;;;;;2079189;28;20025;-66
2021/10/10 02:53:22;;;;;;;91.85;43.85;;;8.70;99.90;;;;;;2063651;28;20084;-67
2021/10/10 02:54:23;;;;;;;100.63;44.33;;;8.70;99.90;;;;;;2074464;28;20056;-66
2021/10/10 02:55:23;;;;;;;93.45;45.50;;;8.60;99.90;;;;;;2080725;28;20049;-66
2021/10/10 02:56:24;;;;;;;92.60;44.15;;;8.60;99.90;;;;;;2080216;28;20484;-67
2021/10/10 02:57:25;;;;;;;88.00;42.63;;;8.60;99.90;;;;;;2080260;28;20037;-67
2021/10/10 02:58:26;;;;;;;83.53;43.20;;;8.60;99.90;;;;;;2075721;28;20025;-67
2021/10/10 02:59:26;;;;;;;90.07;43.22;;;8.60;99.90;;;;;;2078794;28;20091;-67
2021/10/10 03:00:27;;;;;;;97.53;44.67;;;8.50;99.90;;;;;;2080502;28;20025;-67
2021/10/10 03:01:28;;;;;;;89.13;43.70;;;8.50;99.90;;;;;;2077119;28;20160;-65
2021/10/10 03:02:28;;;;;;;94.55;44.88;;;8.50;99.90;;;;;;2079975;28;20028;-67
2021/10/10 03:03:29;;;;;;;92.15;45.63;;;8.50;99.90;;;;;;2074821;28;20167;-67
2021/10/10 03:04:30;;;;;;;97.55;44.45;;;8.50;99.90;;;;;;2078047;28;20027;-67
2021/10/10 03:05:31;;;;;;;94.32;46.55;;;8.50;99.90;;;;;;2079994;28;20021;-66
2021/10/10 03:06:31;;;;;;;95.55;45.35;;;8.50;99.90;;;;;;2079724;28;20113;-66
2021/10/10 03:07:32;;;;;;;99.07;44.05;;;8.50;99.90;;;;;;2079880;28;20482;-66
2021/10/10 03:08:33;;;;;;;95.88;44.38;;;8.50;99.90;;;;;;2076793;28;20025;-66
2021/10/10 03:09:34;;;;;;;88.97;42.05;;;8.50;99.90;;;;;;2077936;28;20021;-66
2021/10/10 03:10:35;;;;;;;82.95;41.90;;;8.50;99.90;;;;;;2080197;28;20635;-65
2021/10/10 03:11:35;;;;;;;92.57;43.63;;;8.40;99.90;;;;;;2079702;28;20428;-65
2021/10/10 03:12:36;;;;;;;90.35;44.55;;;8.50;99.90;;;;;;2080609;28;20702;-66
2021/10/10 03:13:37;;;;;;;90.53;43.78;;;8.40;99.90;;;;;;2080043;28;20057;-66
2021/10/10 03:14:37;;;;;;;92.68;44.20;;;8.40;99.90;;;;;;2080269;28;20489;-66
2021/10/10 03:15:38;;;;;;;92.13;43.33;;;8.40;99.90;;;;;;2072845;28;20028;-65
2021/10/10 03:16:39;;;;;;;84.60;42.97;;;8.40;99.90;;;;;;2075656;28;20521;-66
2021/10/10 03:17:40;;;;;;;96.50;45.08;;;8.40;99.90;;;;;;2079553;28;20091;-66
2021/10/10 03:18:41;;;;;;;91.88;42.30;;;8.40;99.90;;;;;;2078381;28;20116;-66
2021/10/10 03:19:42;;;;;;;97.25;45.47;;;8.40;99.90;;;;;;2071416;28;20410;-66
2021/10/10 03:20:42;;;;;;;96.85;44.42;;;8.40;99.90;;;;;;2071982;28;20106;-65
2021/10/10 03:21:43;;;;;;;95.85;44.10;;;8.40;99.90;;;;;;2074415;28;20060;-66
2021/10/10 03:22:44;;;;;;;85.43;41.97;;;8.40;99.90;;;;;;2079686;28;20109;-66
2021/10/10 03:23:44;;;;;;;75.15;40.47;;;8.40;99.90;;;;;;2080030;28;20485;-66
2021/10/10 03:24:45;;;;;;;87.50;41.22;;;8.40;99.90;;;;;;2080445;28;20097;-65
2021/10/10 03:25:46;;;;;;;78.93;39.70;;;8.40;99.90;;;;;;2076468;28;20573;-66
2021/10/10 03:26:46;;;;;;;79.43;40.55;;;8.40;99.90;;;;;;2072171;28;20046;-66
2021/10/10 03:27:47;;;;;;;90.68;42.13;;;8.30;99.90;;;;;;2077873;28;20018;-65
2021/10/10 03:28:48;;;;;;;86.68;41.47;;;8.30;99.90;;;;;;2076560;28;20079;-66
2021/10/10 03:29:48;;;;;;;78.22;38.38;;;8.30;99.90;;;;;;2080136;28;20021;-66
2021/10/10 03:30:49;;;;;;;88.28;42.03;;;8.30;99.90;;;;;;2078869;28;20021;-66
2021/10/10 03:31:50;;;;;;;80.35;41.65;;;8.30;99.90;;;;;;2079830;28;20017;-65
2021/10/10 03:32:51;;;;;;;73.88;38.65;;;8.30;99.90;;;;;;2079875;28;20098;-66
2021/10/10 03:33:51;;;;;;;77.25;39.97;;;8.30;99.90;;;;;;2080197;28;20109;-66
2021/10/10 03:34:52;;;;;;;94.28;41.80;;;8.30;99.90;;;;;;2080413;28;20041;-66
2021/10/10 03:35:53;;;;;;;84.80;41.88;;;8.30;99.90;;;;;;2076380;28;20084;-66
2021/10/10 03:36:53;;;;;;;84.25;42.60;;;8.30;99.90;;;;;;2071849;28;20022;-66
2021/10/10 03:37:54;;;;;;;80.18;40.67;;;8.30;99.90;;;;;;2077117;28;20421;-66
2021/10/10 03:38:55;;;;;;;80.78;42.67;;;8.30;99.90;;;;;;2077577;28;20386;-65
2021/10/10 03:39:56;;;;;;;77.32;40.17;;;8.30;99.90;;;;;;2079391;28;20477;-65
2021/10/10 03:40:56;;;;;;;87.93;42.08;;;8.30;99.90;;;;;;2079884;28;20462;-66
2021/10/10 03:41:57;;;;;;;77.15;42.33;;;8.30;99.90;;;;;;2080262;28;20026;-65
2021/10/10 03:42:58;;;;;;;82.53;42.22;;;8.30;99.90;;;;;;2072765;28;20062;-65
2021/10/10 03:43:58;;;;;;;83.97;42.08;;;8.30;99.90;;;;;;2072829;28;20133;-65
2021/10/10 03:44:59;;;;;;;100.72;46.40;;;8.30;99.90;;;;;;2073020;28;20076;-65
2021/10/10 03:46:00;;;;;;;109.80;48.10;;;8.30;99.90;;;;;;2075832;28;20025;-66
2021/10/10 03:47:00;;;;;;;92.43;45.20;;;8.40;99.90;;;;;;2080330;28;20104;-66
2021/10/10 03:48:01;;;;;;;86.50;45.40;;;8.30;99.90;;;;;;2074091;28;20712;-66
2021/10/10 03:49:02;;;;;;;96.20;45.55;;;8.30;99.90;;;;;;2074877;28;20465;-65
2021/10/10 03:50:04;;;;;;;90.00;45.83;;;8.40;99.90;;;;;;2073740;28;20022;-65
2021/10/10 03:51:05;;;;;;;97.60;47.58;;;8.40;99.90;;;;;;2074582;28;20033;-66
2021/10/10 03:52:06;;;;;;;96.07;47.65;;;8.40;99.90;;;;;;2075341;28;20116;-65
2021/10/10 03:53:07;;;;;;;92.63;47.22;;;8.50;99.90;;;;;;2075001;28;20022;-65
2021/10/10 03:55:53;;;;;;;121.28;50.95;;;8.70;99.90;;;;;;2081488;28;20102;-66
2021/10/10 03:56:35;;;;;;;84.30;44.55;;;8.70;99.90;;;;;;2075382;28;20089;-66
2021/10/10 03:57:35;;;;;;;100.13;47.78;;;8.80;99.90;;;;;;2072536;28;20518;-66
2021/10/10 03:58:38;;;;;;;100.22;47.75;;;8.90;99.90;;;;;;2069535;28;20029;-66
2021/10/10 03:59:41;;;;;;;113.40;49.58;;;8.90;99.90;;;;;;2076989;28;20022;-65
2021/10/10 04:00:42;;;;;;;95.28;48.38;;;8.90;99.90;;;;;;2073546;28;20025;-66
2021/10/10 04:01:43;;;;;;;121.07;50.50;;;8.90;99.90;;;;;;2086176;28;20457;-65
2021/10/10 04:02:44;;;;;;;123.55;50.75;;;9.00;99.90;;;;;;2086108;28;20029;-66
2021/10/10 04:03:44;;;;;;;86.68;46.50;;;9.00;99.90;;;;;;2081033;28;20440;-66
2021/10/10 04:04:45;;;;;;;101.13;47.13;;;9.00;99.90;;;;;;2079086;28;20105;-67
2021/10/10 04:05:47;;;;;;;136.85;53.15;;;9.10;99.90;;;;;;2079018;28;20029;-66
2021/10/10 04:06:47;;;;;;;106.57;49.60;;;9.20;99.90;;;;;;2075322;28;20505;-65
2021/10/10 04:07:49;;;;;;;111.13;48.08;;;9.20;99.90;;;;;;2080806;28;20112;-65
2021/10/10 04:08:50;;;;;;;114.75;51.35;;;9.30;99.90;;;;;;2081709;28;20024;-65
2021/10/10 04:09:51;;;;;;;114.22;49.80;;;9.30;99.90;;;;;;2078620;28;20022;-65
2021/10/10 04:10:52;;;;;;;95.60;47.85;;;9.30;99.90;;;;;;2081317;28;20013;-65
2021/10/10 04:11:53;;;;;;;94.28;47.05;;;9.40;99.90;;;;;;2076160;28;20026;-66
2021/10/10 04:12:54;;;;;;;98.72;48.67;;;9.40;99.90;;;;;;2075250;28;20107;-66
2021/10/10 04:13:55;;;;;;;121.88;49.47;;;9.50;99.90;;;;;;2073890;28;20071;-67
2021/10/10 04:14:56;;;;;;;138.73;51.35;;;9.50;99.90;;;;;;2072070;28;20026;-66
2021/10/10 04:15:56;;;;;;;169.40;53.75;;;9.50;99.90;;;;;;2080690;28;20022;-66
2021/10/10 04:16:57;;;;;;;95.10;48.58;;;9.50;99.90;;;;;;2076300;28;20072;-66
2021/10/10 04:17:58;;;;;;;95.90;46.15;;;9.50;99.90;;;;;;2081489;28;20026;-65
2021/10/10 04:18:59;;;;;;;165.48;52.80;;;9.50;99.90;;;;;;2073928;28;20029;-66
2021/10/10 04:19:59;;;;;;;118.80;49.60;;;9.50;99.90;;;;;;2074987;28;20046;-65
2021/10/10 04:21:00;;;;;;;169.00;53.42;;;9.50;99.90;;;;;;2080959;28;20032;-65
2021/10/10 04:22:01;;;;;;;107.32;48.72;;;9.50;99.90;;;;;;2068088;28;20462;-66
2021/10/10 04:23:02;;;;;;;135.25;51.70;;;9.50;99.90;;;;;;2071822;28;20065;-66
2021/10/10 04:24:03;;;;;;;131.27;51.08;;;9.50;99.90;;;;;;2077869;28;20072;-66
2021/10/10 04:25:05;;;;;;;145.38;52.20;;;9.50;99.90;;;;;;2079784;28;20032;-66
2021/10/10 04:26:05;;;;;;;118.10;50.92;;;9.50;99.90;;;;;;2081295;28;20025;-72
2021/10/10 04:27:06;;;;;;;99.28;47.65;;;9.50;99.90;;;;;;2080992;28;20059;-66
2021/10/10 04:28:07;;;;;;;118.93;48.75;;;9.60;99.90;;;;;;2081167;28;20485;-65
2021/10/10 04:29:07;;;;;;;126.65;49.25;;;9.60;99.90;;;;;;2083972;28;20017;-66
2021/10/10 04:30:12;;;;;;;121.07;48.90;;;9.60;99.90;;;;;;2089140;28;20487;-66
2021/10/10 04:31:12;;;;;;;137.82;52.22;;;9.50;99.90;;;;;;2082748;28;20028;-66
2021/10/10 04:32:13;;;;;;;134.00;50.35;;;9.50;99.90;;;;;;2078502;28;20028;-66
2021/10/10 04:33:14;;;;;;;144.68;51.83;;;9.50;99.90;;;;;;2078553;28;20048;-66
2021/10/10 04:34:14;;;;;;;111.20;47.03;;;9.60;99.90;;;;;;2080703;28;20556;-66
2021/10/10 04:35:15;;;;;;;203.38;53.10;;;9.50;99.90;;;;;;2080960;28;20024;-66
2021/10/10 04:36:16;;;;;;;143.38;49.05;;;9.50;99.90;;;;;;2080822;28;20095;-66
2021/10/10 04:37:18;;;;;;;141.25;48.22;;;9.50;99.90;;;;;;2079045;28;20100;-66
2021/10/10 04:38:18;;;;;;;157.57;49.90;;;9.50;99.90;;;;;;2081544;28;20353;-66
2021/10/10 04:39:19;;;;;;;124.50;46.53;;;9.50;99.90;;;;;;2080709;28;20041;-66
2021/10/10 04:40:20;;;;;;;122.03;47.85;;;9.50;99.90;;;;;;2075947;28;20034;-66
2021/10/10 04:41:20;;;;;;;163.75;50.05;;;9.60;99.90;;;;;;2076993;28;20029;-66
2021/10/10 04:42:21;;;;;;;166.80;51.28;;;9.60;99.90;;;;;;2080740;28;20030;-66
2021/10/10 04:43:22;;;;;;;114.10;47.20;;;9.60;99.90;;;;;;2081382;28;20049;-66
2021/10/10 04:44:22;;;;;;;131.30;46.13;;;9.60;99.90;;;;;;2080577;28;20083;-66
2021/10/10 04:45:23;;;;;;;156.38;48.70;;;9.70;99.90;;;;;;2081134;28;20549;-66
2021/10/10 04:46:24;;;;;;;157.15;48.47;;;9.70;99.90;;;;;;2074860;28;20021;-66
2021/10/10 04:47:24;;;;;;;113.70;45.15;;;9.70;99.90;;;;;;2065842;28;20040;-66
2021/10/10 04:48:25;;;;;;;127.85;46.08;;;9.60;99.90;;;;;;2076120;28;20025;-66
2021/10/10 04:49:26;;;;;;;138.45;46.58;;;9.70;99.90;;;;;;2080178;28;20298;-66
2021/10/10 04:50:27;;;;;;;134.23;46.65;;;9.60;99.90;;;;;;2081051;28;20018;-66
2021/10/10 04:51:27;;;;;;;143.57;46.80;;;9.60;99.90;;;;;;2075918;28;20109;-66
2021/10/10 04:52:30;;;;;;;151.23;50.40;;;9.60;99.90;;;;;;2072654;28;20381;-66
2021/10/10 04:53:30;;;;;;;143.95;48.70;;;9.60;99.90;;;;;;2080558;28;20033;-66
2021/10/10 04:54:33;;;;;;;147.38;50.35;;;9.60;99.90;;;;;;2078707;28;20053;-66
2021/10/10 04:55:34;;;;;;;115.82;47.08;;;9.60;99.90;;;;;;2072965;28;20135;-66
2021/10/10 04:56:35;;;;;;;125.70;46.25;;;9.60;99.90;;;;;;2073744;28;20820;-67
2021/10/10 04:57:35;;;;;;;167.68;48.28;;;9.60;99.90;;;;;;2078080;28;20536;-66
2021/10/10 04:58:36;;;;;;;139.93;47.40;;;9.60;99.90;;;;;;2072918;28;20022;-66
2021/10/10 04:59:37;;;;;;;150.57;48.90;;;9.70;99.90;;;;;;2074832;28;20021;-66
2021/10/10 05:00:37;;;;;;;131.27;46.97;;;9.60;99.90;;;;;;2072882;28;20037;-66
2021/10/10 05:01:38;;;;;;;128.18;46.42;;;9.60;99.90;;;;;;2078256;28;20053;-66
2021/10/10 05:02:39;;;;;;;112.20;44.88;;;9.60;99.90;;;;;;2080422;28;20435;-65
2021/10/10 05:03:39;;;;;;;116.47;47.58;;;9.60;99.90;;;;;;2073570;28;20018;-67
2021/10/10 05:04:40;;;;;;;125.82;48.67;;;9.60;99.90;;;;;;2073320;28;20083;-66
2021/10/10 05:05:41;;;;;;;125.18;48.53;;;9.70;99.90;;;;;;2079923;28;20556;-66
2021/10/10 05:06:42;;;;;;;136.18;48.35;;;9.60;99.90;;;;;;2077824;28;20021;-66
2021/10/10 05:07:43;;;;;;;113.07;45.35;;;9.60;99.90;;;;;;2080048;28;20116;-66
2021/10/10 05:08:43;;;;;;;103.95;45.33;;;9.60;99.90;;;;;;2077613;28;20088;-66
2021/10/10 05:09:44;;;;;;;106.97;44.10;;;9.60;99.90;;;;;;2074542;28;20045;-67
2021/10/10 05:10:45;;;;;;;133.50;47.70;;;9.60;99.90;;;;;;2080562;28;20434;-66
2021/10/10 05:11:46;;;;;;;104.15;44.63;;;9.60;99.90;;;;;;2074676;28;20026;-66
2021/10/10 05:12:46;;;;;;;102.10;43.53;;;9.60;99.90;;;;;;2072462;28;20026;-67
2021/10/10 05:13:47;;;;;;;118.13;46.15;;;9.50;99.90;;;;;;2069119;28;20034;-66